South Pittsburg, Tennessee
Current Conditions -  °F | °C
As of 2:35 PM on Thursday 27 Nov 2014 (Local Time) from KBGF Reporting Station
Overcast Overcast  
Wind Chill: 30°   Ceiling: 3500
Heat Index: 37°   Visibility: 10mi
Dew Point: 27°   Wind: 10mph
Humidity: 65%   Direction: 320°NW
Pressure: 30.37"   Gusts: NA
Location:  35.01°N, 85.7°W
Report Text: KBGF 272035Z AUTO 32009KT 10SM OVC035 03/M03 A3037 RMK
Loading
Personal Weather Stations






























Interactive Weather Map New forecast layout! Learn more

10-Day Weather Forecast

Advertisements
Track Severe Weather on mobile